Time;durP1;ratioP1;P1;durP2;ratioP2;P2;SDS_P1;SDS_P2;PMS_P1;PMS_P2;Temp;Humidity;BMP_temperature;BMP_pressure;BME280_temperature;BME280_humidity;BME280_pressure;Samples;Min_cycle;Max_cycle;Signal;HPM_P1;HPM_P2
2023/09/12 00:02:04;;;;;;;;;;;21.50;82.80;;;;;;4999206;28;19937;-83
2023/09/12 00:04:29;;;;;;;;;;;21.60;81.30;;;;;;4994976;28;19909;-83
2023/09/12 00:06:55;;;;;;;;;;;21.50;81.20;;;;;;4974889;28;19914;-83
2023/09/12 00:09:20;;;;;;;;;;;21.50;81.20;;;;;;4992562;28;20422;-83
2023/09/12 00:11:46;;;;;;;;;;;21.40;80.90;;;;;;4984130;28;20425;-82
2023/09/12 00:14:14;;;;;;;;;;;21.30;81.00;;;;;;4997287;28;19921;-83
2023/09/12 00:16:40;;;;;;;;;;;21.30;81.00;;;;;;4987276;28;19920;-82
2023/09/12 00:19:05;;;;;;;;;;;21.40;80.70;;;;;;5010183;28;19910;-83
2023/09/12 00:21:31;;;;;;;;;;;21.20;81.10;;;;;;4987177;28;19928;-82
2023/09/12 00:23:56;;;;;;;;;;;21.20;81.30;;;;;;4990483;28;19964;-83
2023/09/12 00:26:22;;;;;;;;;;;21.20;81.20;;;;;;5006543;28;19909;-82
2023/09/12 00:28:47;;;;;;;;;;;21.10;81.50;;;;;;5018810;28;19909;-82
2023/09/12 00:31:13;;;;;;;;;;;21.10;81.70;;;;;;5002119;28;20383;-82
2023/09/12 00:33:38;;;;;;;;;;;21.10;81.70;;;;;;4984667;28;19909;-82
2023/09/12 00:36:04;;;;;;;;;;;21.00;81.90;;;;;;5016291;28;19918;-82
2023/09/12 00:38:29;;;;;;;;;;;21.00;82.20;;;;;;4998384;28;19909;-82
2023/09/12 00:40:55;;;;;;;;;;;21.00;82.60;;;;;;5001030;28;19944;-81
2023/09/12 00:43:20;;;;;;;;;;;20.90;82.70;;;;;;5000738;28;19910;-82
2023/09/12 00:45:46;;;;;;;;;;;20.90;83.00;;;;;;5002378;28;19914;-83
2023/09/12 00:48:12;;;;;;;;;;;20.90;83.00;;;;;;5004825;28;19916;-82
2023/09/12 00:50:38;;;;;;;;;;;21.00;82.70;;;;;;4990778;28;19914;-83
2023/09/12 00:53:04;;;;;;;;;;;21.00;82.70;;;;;;4981420;28;19913;-82
2023/09/12 00:55:31;;;;;;;;;;;21.10;82.00;;;;;;4986361;28;20290;-82
2023/09/12 00:57:57;;;;;;;;;;;21.10;81.70;;;;;;4992884;28;20015;-82
2023/09/12 01:00:22;;;;;;;;;;;21.10;81.40;;;;;;4998746;28;19949;-82
2023/09/12 01:02:49;;;;;;;;;;;21.10;81.80;;;;;;4986139;28;20036;-83
2023/09/12 01:05:15;;;;;;;;;;;21.10;81.80;;;;;;4987190;28;19914;-83
2023/09/12 01:07:42;;;;;;;;;;;21.20;81.10;;;;;;4979268;28;19942;-82
2023/09/12 01:10:08;;;;;;;;;;;21.30;80.40;;;;;;4988241;28;19913;-82
2023/09/12 01:12:33;;;;;;;;;;;21.30;80.20;;;;;;4987479;28;19937;-83
2023/09/12 01:14:59;;;;;;;;;;;21.30;79.90;;;;;;5004946;28;19925;-82
2023/09/12 01:17:24;;;;;;;;;;;21.10;80.40;;;;;;5005280;28;19910;-82
2023/09/12 01:19:50;;;;;;;;;;;21.10;81.00;;;;;;5018108;28;20336;-82
2023/09/12 01:22:35;;;;;;;;;;;20.90;81.40;;;;;;4989589;28;19918;-82
2023/09/12 01:25:07;;;;;;;;;;;20.90;81.60;;;;;;4998904;28;19953;-82
2023/09/12 01:27:43;;;;;;;;;;;20.90;81.60;;;;;;4992834;28;19918;-82
2023/09/12 01:30:09;;;;;;;;;;;20.90;82.10;;;;;;5011767;28;19910;-82
2023/09/12 01:32:35;;;;;;;;;;;20.90;81.80;;;;;;4998852;28;20239;-82
2023/09/12 01:35:03;;;;;;;;;;;20.80;82.20;;;;;;4991954;28;19936;-82
2023/09/12 01:37:29;;;;;;;;;;;20.80;82.40;;;;;;4996651;28;19948;-82
2023/09/12 01:39:55;;;;;;;;;;;20.80;82.40;;;;;;5013429;28;19913;-82
2023/09/12 01:42:21;;;;;;;;;;;20.80;82.70;;;;;;5008605;28;19923;-82
2023/09/12 01:44:48;;;;;;;;;;;20.90;82.20;;;;;;5012247;28;19914;-82
2023/09/12 01:47:14;;;;;;;;;;;21.00;81.90;;;;;;5013230;28;19914;-83
2023/09/12 01:49:41;;;;;;;;;;;21.10;81.50;;;;;;5007202;28;20347;-82
2023/09/12 01:52:07;;;;;;;;;;;21.10;81.50;;;;;;4991476;28;19914;-82
2023/09/12 01:54:34;;;;;;;;;;;21.10;81.70;;;;;;5024172;28;20001;-82
2023/09/12 01:57:00;;;;;;;;;;;21.00;81.90;;;;;;5006488;28;20012;-83
2023/09/12 01:59:25;;;;;;;;;;;21.00;82.10;;;;;;4998342;28;19913;-83
2023/09/12 02:01:51;;;;;;;;;;;21.00;82.60;;;;;;4987988;28;20386;-83
2023/09/12 02:04:16;;;;;;;;;;;21.00;83.10;;;;;;4985722;28;19909;-83
2023/09/12 02:06:42;;;;;;;;;;;21.00;83.10;;;;;;4992586;28;19914;-83
2023/09/12 02:09:07;;;;;;;;;;;21.10;83.00;;;;;;5010785;28;19910;-83
2023/09/12 02:11:33;;;;;;;;;;;21.10;82.70;;;;;;4988155;28;20452;-83
2023/09/12 02:13:58;;;;;;;;;;;21.00;82.80;;;;;;4996509;28;19920;-84
2023/09/12 02:16:24;;;;;;;;;;;20.90;82.90;;;;;;5003180;28;20020;-83
2023/09/12 02:18:49;;;;;;;;;;;20.90;83.40;;;;;;5018841;28;19920;-83
2023/09/12 02:21:15;;;;;;;;;;;20.80;83.40;;;;;;5010061;28;19921;-82
2023/09/12 02:23:41;;;;;;;;;;;20.80;83.40;;;;;;4985034;28;19913;-82
2023/09/12 02:26:07;;;;;;;;;;;20.90;82.90;;;;;;4986476;28;19917;-82
2023/09/12 02:28:32;;;;;;;;;;;21.00;82.60;;;;;;4992803;28;19916;-82
2023/09/12 02:30:57;;;;;;;;;;;21.00;82.60;;;;;;4979622;28;19914;-81
2023/09/12 02:33:23;;;;;;;;;;;20.80;83.10;;;;;;5009800;28;19921;-82
2023/09/12 02:35:48;;;;;;;;;;;20.90;82.80;;;;;;5004214;28;19910;-82
2023/09/12 02:38:14;;;;;;;;;;;20.80;83.00;;;;;;5006884;28;20247;-82
2023/09/12 02:40:39;;;;;;;;;;;20.80;83.00;;;;;;5000930;28;19937;-82
2023/09/12 02:43:05;;;;;;;;;;;20.90;82.70;;;;;;5005172;28;19914;-83
2023/09/12 02:45:30;;;;;;;;;;;20.70;83.50;;;;;;5005483;28;20048;-82
2023/09/12 02:47:56;;;;;;;;;;;20.70;83.80;;;;;;4990743;28;19925;-82
2023/09/12 02:50:21;;;;;;;;;;;20.70;84.00;;;;;;4991250;28;19909;-82
2023/09/12 02:52:47;;;;;;;;;;;20.80;83.90;;;;;;5001762;28;20004;-83
2023/09/12 02:55:12;;;;;;;;;;;20.70;84.20;;;;;;5006347;28;19914;-83
2023/09/12 02:57:38;;;;;;;;;;;20.70;84.30;;;;;;4990757;28;19972;-83
2023/09/12 03:00:06;;;;;;;;;;;20.70;84.20;;;;;;5003961;28;20551;-82
2023/09/12 03:02:32;;;;;;;;;;;20.70;84.40;;;;;;4980921;28;19920;-83
2023/09/12 03:04:57;;;;;;;;;;;20.60;84.60;;;;;;5005503;28;20282;-83
2023/09/12 03:07:23;;;;;;;;;;;20.70;84.30;;;;;;5002538;28;19925;-82
2023/09/12 03:09:49;;;;;;;;;;;20.60;84.20;;;;;;5005986;28;19910;-83
2023/09/12 03:12:15;;;;;;;;;;;20.60;84.40;;;;;;5016221;28;19914;-84
2023/09/12 03:14:40;;;;;;;;;;;20.60;84.40;;;;;;4987801;28;19920;-83
2023/09/12 03:17:06;;;;;;;;;;;20.60;84.70;;;;;;5007439;28;19910;-83
2023/09/12 03:19:31;;;;;;;;;;;20.60;84.70;;;;;;4982181;28;19909;-83
2023/09/12 03:21:57;;;;;;;;;;;20.60;84.60;;;;;;4999555;28;20537;-83
2023/09/12 03:24:24;;;;;;;;;;;20.70;84.60;;;;;;5005560;28;19913;-83
2023/09/12 03:26:50;;;;;;;;;;;20.70;84.40;;;;;;5003587;28;19914;-83
2023/09/12 03:29:15;;;;;;;;;;;20.70;84.40;;;;;;4984272;28;19920;-83
2023/09/12 03:31:41;;;;;;;;;;;20.80;84.60;;;;;;5005606;28;19909;-84
2023/09/12 03:34:06;;;;;;;;;;;20.70;85.50;;;;;;4988539;28;19948;-83
2023/09/12 03:36:32;;;;;;;;;;;20.80;85.60;;;;;;5002687;28;19910;-84
2023/09/12 03:38:57;;;;;;;;;;;20.60;85.70;;;;;;4984421;28;20412;-84
2023/09/12 03:41:25;;;;;;;;;;;20.50;85.90;;;;;;4978766;28;20346;-85
2023/09/12 03:43:54;;;;;;;;;;;20.50;86.70;;;;;;4989879;28;19917;-85
2023/09/12 03:46:20;;;;;;;;;;;20.50;86.90;;;;;;4996283;28;19917;-85
2023/09/12 03:48:45;;;;;;;;;;;20.40;86.60;;;;;;4991309;28;19925;-85
2023/09/12 03:51:11;;;;;;;;;;;20.40;87.50;;;;;;5005905;28;19960;-85
2023/09/12 03:53:36;;;;;;;;;;;20.40;87.50;;;;;;5009221;28;19910;-85
2023/09/12 03:56:02;;;;;;;;;;;20.40;87.40;;;;;;5014180;28;19914;-85
2023/09/12 03:58:27;;;;;;;;;;;20.50;88.10;;;;;;5009268;28;19918;-85
2023/09/12 04:00:53;;;;;;;;;;;20.50;88.00;;;;;;5007160;28;19932;-85
2023/09/12 04:03:20;;;;;;;;;;;20.50;88.10;;;;;;4986636;28;19913;-86
2023/09/12 04:05:49;;;;;;;;;;;20.50;88.10;;;;;;5008604;28;20438;-85
2023/09/12 04:08:15;;;;;;;;;;;20.50;88.20;;;;;;5011502;28;19975;-86
2023/09/12 04:10:40;;;;;;;;;;;20.40;88.40;;;;;;5006134;28;19918;-85
2023/09/12 04:13:06;;;;;;;;;;;20.40;88.50;;;;;;4990170;28;19921;-86
2023/09/12 04:15:31;;;;;;;;;;;20.40;88.50;;;;;;4990014;28;19917;-85
2023/09/12 04:17:57;;;;;;;;;;;20.30;88.60;;;;;;5007090;28;20500;-85
2023/09/12 04:20:22;;;;;;;;;;;20.40;88.60;;;;;;4992768;28;19942;-85
2023/09/12 04:22:48;;;;;;;;;;;20.30;88.40;;;;;;4986121;28;19910;-85
2023/09/12 04:25:14;;;;;;;;;;;20.30;88.30;;;;;;5011762;28;19941;-85
2023/09/12 04:27:41;;;;;;;;;;;20.20;87.90;;;;;;5018476;28;20298;-86
2023/09/12 04:30:06;;;;;;;;;;;20.10;87.50;;;;;;4977872;28;19914;-87
2023/09/12 04:32:32;;;;;;;;;;;20.10;87.70;;;;;;5006788;28;19966;-86
2023/09/12 04:34:57;;;;;;;;;;;20.20;86.90;;;;;;4982246;28;19918;-85
2023/09/12 04:37:23;;;;;;;;;;;20.20;86.70;;;;;;4999616;28;19914;-85
2023/09/12 04:39:48;;;;;;;;;;;20.10;86.70;;;;;;4987140;28;19948;-85
2023/09/12 04:42:14;;;;;;;;;;;20.10;87.10;;;;;;4981250;28;19918;-85
2023/09/12 04:44:40;;;;;;;;;;;20.10;87.20;;;;;;4990227;28;20068;-85
2023/09/12 04:47:05;;;;;;;;;;;20.10;87.30;;;;;;4991556;28;20362;-85
2023/09/12 04:49:31;;;;;;;;;;;20.10;86.50;;;;;;5009082;28;19932;-85
2023/09/12 04:51:56;;;;;;;;;;;20.10;86.30;;;;;;5012915;28;19914;-84
2023/09/12 04:54:22;;;;;;;;;;;20.10;86.50;;;;;;5006485;28;19977;-84
2023/09/12 04:56:47;;;;;;;;;;;20.10;86.40;;;;;;4986850;28;19980;-83
2023/09/12 04:59:13;;;;;;;;;;;20.10;86.20;;;;;;4988356;28;19921;-83
2023/09/12 05:01:38;;;;;;;;;;;20.30;85.10;;;;;;4992698;28;19917;-84
2023/09/12 05:04:04;;;;;;;;;;;20.20;85.90;;;;;;4999570;28;19913;-84
2023/09/12 05:06:29;;;;;;;;;;;20.10;86.30;;;;;;5013214;28;19910;-83
2023/09/12 05:08:55;;;;;;;;;;;20.10;86.60;;;;;;5007131;28;19914;-83
2023/09/12 05:11:22;;;;;;;;;;;20.10;86.20;;;;;;4999821;28;19918;-84
2023/09/12 05:13:47;;;;;;;;;;;20.10;86.70;;;;;;4985999;28;19914;-84
2023/09/12 05:16:12;;;;;;;;;;;20.10;87.00;;;;;;5004043;28;19917;-83
2023/09/12 05:18:38;;;;;;;;;;;20.10;87.40;;;;;;4991508;28;19920;-84
2023/09/12 05:21:03;;;;;;;;;;;20.20;87.30;;;;;;4981928;28;20337;-84
2023/09/12 05:23:29;;;;;;;;;;;20.20;87.60;;;;;;4981224;28;19922;-85
2023/09/12 05:25:54;;;;;;;;;;;20.10;87.80;;;;;;5008167;28;19918;-84
2023/09/12 05:28:20;;;;;;;;;;;20.10;87.90;;;;;;4989757;28;19913;-85
2023/09/12 05:30:45;;;;;;;;;;;20.20;87.80;;;;;;4981932;28;19913;-84
2023/09/12 05:33:11;;;;;;;;;;;20.30;87.80;;;;;;4989679;28;20378;-84
2023/09/12 05:35:37;;;;;;;;;;;20.20;87.90;;;;;;5007007;28;20391;-87
2023/09/12 05:38:03;;;;;;;;;;;20.20;88.00;;;;;;4984154;28;19921;-85
2023/09/12 05:40:28;;;;;;;;;;;20.20;88.10;;;;;;5002920;28;20405;-86
2023/09/12 05:42:54;;;;;;;;;;;20.20;88.20;;;;;;4982279;28;19924;-86
2023/09/12 05:45:19;;;;;;;;;;;20.30;87.70;;;;;;5010840;28;19913;-86
2023/09/12 05:47:45;;;;;;;;;;;20.40;87.40;;;;;;4984812;28;19914;-86
2023/09/12 05:50:11;;;;;;;;;;;20.40;87.10;;;;;;4992086;28;19917;-85
2023/09/12 05:52:37;;;;;;;;;;;20.30;87.00;;;;;;4987891;28;20379;-84
2023/09/12 05:55:04;;;;;;;;;;;20.30;86.40;;;;;;4992058;28;19916;-85
2023/09/12 05:57:33;;;;;;;;;;;20.20;86.70;;;;;;5000941;28;19918;-84
2023/09/12 05:59:59;;;;;;;;;;;20.30;86.50;;;;;;5021098;28;19921;-85
2023/09/12 06:02:25;;;;;;;;;;;20.10;86.90;;;;;;5015308;28;19917;-84
2023/09/12 06:04:51;;;;;;;;;;;20.20;86.70;;;;;;4990020;28;19928;-84
2023/09/12 06:07:16;;;;;;;;;;;20.20;87.40;;;;;;4999108;28;19964;-85
2023/09/12 06:09:42;;;;;;;;;;;20.20;87.70;;;;;;5015700;28;20000;-85
2023/09/12 06:12:07;;;;;;;;;;;20.30;87.80;;;;;;5010095;28;19921;-85
2023/09/12 06:14:33;;;;;;;;;;;20.30;88.40;;;;;;5015164;28;19913;-85
2023/09/12 06:16:58;;;;;;;;;;;20.30;88.60;;;;;;5018576;28;19921;-85
2023/09/12 06:19:24;;;;;;;;;;;20.30;89.20;;;;;;4996918;28;19989;-85
2023/09/12 06:21:49;;;;;;;;;;;20.40;89.30;;;;;;4984416;28;19925;-84
2023/09/12 06:24:16;;;;;;;;;;;20.40;89.10;;;;;;5002809;28;20319;-83
2023/09/12 06:26:42;;;;;;;;;;;20.40;89.20;;;;;;4982788;28;19969;-84
2023/09/12 06:29:07;;;;;;;;;;;20.40;89.10;;;;;;4975124;28;20361;-84
2023/09/12 06:31:33;;;;;;;;;;;20.50;88.50;;;;;;5008958;28;19918;-85
2023/09/12 06:33:58;;;;;;;;;;;20.60;87.20;;;;;;4985843;28;19921;-84
2023/09/12 06:36:24;;;;;;;;;;;20.50;87.20;;;;;;4985830;28;19949;-83
2023/09/12 06:38:50;;;;;;;;;;;20.60;87.00;;;;;;4990812;28;19922;-84
2023/09/12 06:41:19;;;;;;;;;;;20.80;85.60;;;;;;4994349;28;19918;-84
2023/09/12 06:43:44;;;;;;;;;;;20.80;85.40;;;;;;4983481;28;19918;-82
2023/09/12 06:46:09;;;;;;;;;;;20.70;86.20;;;;;;5012557;28;19988;-83
2023/09/12 06:48:35;;;;;;;;;;;20.70;86.70;;;;;;4994923;28;19956;-83
2023/09/12 06:51:04;;;;;;;;;;;20.60;87.50;;;;;;5008008;28;20038;-84
2023/09/12 06:53:30;;;;;;;;;;;20.70;86.60;;;;;;4990084;28;19914;-82
2023/09/12 06:55:57;;;;;;;;;;;20.50;86.60;;;;;;4983315;28;20346;-84
2023/09/12 06:58:22;;;;;;;;;;;20.40;86.60;;;;;;4977923;28;20387;-83
2023/09/12 07:00:48;;;;;;;;;;;20.30;85.00;;;;;;4978141;28;19929;-83
2023/09/12 07:03:14;;;;;;;;;;;20.40;85.40;;;;;;5008606;28;19914;-82
2023/09/12 07:05:40;;;;;;;;;;;20.40;85.40;;;;;;4999845;28;19914;-82
2023/09/12 07:08:06;;;;;;;;;;;20.30;86.00;;;;;;5004402;28;19963;-82
2023/09/12 07:10:32;;;;;;;;;;;20.20;86.90;;;;;;4998971;28;19950;-83
2023/09/12 07:12:57;;;;;;;;;;;20.10;87.70;;;;;;4995331;28;19945;-81
2023/09/12 07:15:23;;;;;;;;;;;20.10;87.30;;;;;;4992825;28;19917;-81
2023/09/12 07:17:48;;;;;;;;;;;20.00;88.40;;;;;;4983763;28;19936;-82
2023/09/12 07:20:15;;;;;;;;;;;19.90;89.30;;;;;;5001854;28;19917;-83
2023/09/12 07:22:40;;;;;;;;;;;19.80;89.90;;;;;;5000687;28;20403;-80
2023/09/12 07:25:06;;;;;;;;;;;19.90;90.20;;;;;;4990023;28;19910;-82
2023/09/12 07:27:32;;;;;;;;;;;20.00;89.70;;;;;;4987928;28;20008;-83
2023/09/12 07:29:57;;;;;;;;;;;20.00;88.70;;;;;;4992160;28;20024;-85
2023/09/12 07:32:24;;;;;;;;;;;19.90;87.30;;;;;;4983722;28;19914;-85
2023/09/12 07:34:49;;;;;;;;;;;19.70;87.80;;;;;;4995095;28;19921;-85
2023/09/12 07:37:15;;;;;;;;;;;19.60;88.50;;;;;;4996250;28;19914;-85
2023/09/12 07:39:40;;;;;;;;;;;19.70;88.60;;;;;;4999909;28;20462;-87
2023/09/12 07:42:06;;;;;;;;;;;19.60;88.40;;;;;;5019910;28;20402;-83
2023/09/12 07:44:31;;;;;;;;;;;19.70;88.50;;;;;;5005036;28;20003;-85
2023/09/12 07:46:57;;;;;;;;;;;19.60;88.90;;;;;;4987731;28;19917;-83
2023/09/12 07:49:24;;;;;;;;;;;19.70;88.70;;;;;;4981309;28;19914;-83
2023/09/12 07:51:49;;;;;;;;;;;19.70;88.20;;;;;;4999390;28;19996;-83
2023/09/12 07:54:15;;;;;;;;;;;19.70;88.80;;;;;;5004680;28;19945;-83
2023/09/12 07:56:40;;;;;;;;;;;19.60;89.00;;;;;;5004016;28;19918;-84
2023/09/12 07:59:06;;;;;;;;;;;19.60;88.50;;;;;;4988627;28;20306;-84
2023/09/12 08:01:31;;;;;;;;;;;19.60;88.90;;;;;;4996963;28;20401;-87
2023/09/12 08:03:57;;;;;;;;;;;19.70;88.80;;;;;;4998709;28;19914;-85
2023/09/12 08:06:24;;;;;;;;;;;19.70;88.30;;;;;;5004407;28;20367;-84
2023/09/12 08:08:49;;;;;;;;;;;19.70;88.30;;;;;;4990356;28;19953;-86
2023/09/12 08:11:15;;;;;;;;;;;19.90;88.50;;;;;;4993898;28;19916;-86
2023/09/12 08:13:40;;;;;;;;;;;19.90;87.20;;;;;;4981658;28;19921;-86
2023/09/12 08:16:06;;;;;;;;;;;20.00;87.20;;;;;;4980673;28;19910;-86
2023/09/12 08:18:31;;;;;;;;;;;20.10;87.50;;;;;;4980142;28;19910;-85
2023/09/12 08:20:57;;;;;;;;;;;20.10;88.00;;;;;;4998815;28;19909;-88
2023/09/12 08:23:22;;;;;;;;;;;20.40;87.40;;;;;;5014765;28;19910;-87
2023/09/12 08:25:50;;;;;;;;;;;20.60;87.50;;;;;;5020370;28;19913;-86
2023/09/12 08:28:16;;;;;;;;;;;20.60;87.60;;;;;;5012632;28;19978;-87
2023/09/12 08:30:43;;;;;;;;;;;20.80;87.00;;;;;;4991258;28;19914;-86
2023/09/12 08:33:09;;;;;;;;;;;21.00;86.80;;;;;;5059026;23;20391;-88
2023/09/12 08:35:34;;;;;;;;;;;21.10;86.00;;;;;;5029235;28;19917;-87
2023/09/12 08:38:00;;;;;;;;;;;20.90;86.30;;;;;;5023516;28;19914;-90
2023/09/12 08:40:25;;;;;;;;;;;20.70;86.90;;;;;;5002140;28;20332;-91
2023/09/12 08:42:51;;;;;;;;;;;20.50;87.70;;;;;;4999290;28;19917;-90
2023/09/12 08:45:18;;;;;;;;;;;20.50;88.00;;;;;;5011965;28;19910;-89
2023/09/12 08:47:44;;;;;;;;;;;20.40;88.10;;;;;;5017125;28;19956;-88
2023/09/12 08:50:10;;;;;;;;;;;20.40;88.90;;;;;;5003785;28;19913;-88
2023/09/12 08:52:36;;;;;;;;;;;20.50;88.90;;;;;;5008739;28;19914;-89
2023/09/12 08:55:02;;;;;;;;;;;20.70;88.30;;;;;;5016485;28;20016;-88
2023/09/12 08:57:29;;;;;;;;;;;20.70;88.50;;;;;;5003654;28;19916;-90
2023/09/12 08:59:55;;;;;;;;;;;20.60;88.50;;;;;;5006671;28;20557;-87
2023/09/12 09:02:20;;;;;;;;;;;20.60;88.80;;;;;;4999525;28;19914;-89
2023/09/12 09:04:46;;;;;;;;;;;20.90;88.80;;;;;;5002402;28;19914;-92
2023/09/12 09:07:13;;;;;;;;;;;20.90;88.20;;;;;;4997149;28;20005;-89
2023/09/12 09:09:38;;;;;;;;;;;20.90;88.50;;;;;;4995573;28;19957;-88
2023/09/12 09:12:07;;;;;;;;;;;20.90;88.30;;;;;;4996701;28;19947;-89
2023/09/12 09:14:32;;;;;;;;;;;20.90;87.60;;;;;;4995998;28;20007;-89
2023/09/12 09:16:58;;;;;;;;;;;20.80;87.60;;;;;;5010590;28;20394;-89
2023/09/12 09:19:39;;;;;;;;;;;20.70;87.50;;;;;;4998379;28;20359;-89
2023/09/12 09:22:05;;;;;;;;;;;20.60;88.30;;;;;;5025710;28;20290;-89
2023/09/12 09:24:31;;;;;;;;;;;20.60;87.60;;;;;;4995816;28;19917;-89
2023/09/12 09:27:00;;;;;;;;;;;20.60;87.00;;;;;;5025396;28;19913;-86
2023/09/12 09:29:26;;;;;;;;;;;20.70;87.20;;;;;;4989592;28;20298;-89
2023/09/12 09:31:51;;;;;;;;;;;20.70;86.90;;;;;;4999660;28;19925;-90
2023/09/12 09:34:18;;;;;;;;;;;20.80;86.90;;;;;;4997769;28;19917;-90
2023/09/12 09:36:44;;;;;;;;;;;20.70;87.50;;;;;;4997713;28;20425;-90
2023/09/12 09:39:10;;;;;;;;;;;20.80;87.20;;;;;;4999953;28;20044;-90
2023/09/12 09:41:36;;;;;;;;;;;20.70;87.30;;;;;;4996721;28;20012;-90
2023/09/12 09:44:04;;;;;;;;;;;20.80;88.10;;;;;;5004872;28;19919;-89
2023/09/12 09:46:29;;;;;;;;;;;21.00;86.80;;;;;;5029676;28;19914;-91
2023/09/12 09:48:55;;;;;;;;;;;20.90;86.80;;;;;;4996496;28;19913;-89
2023/09/12 09:51:20;;;;;;;;;;;21.10;84.50;;;;;;5001572;28;19953;-91
2023/09/12 09:53:50;;;;;;;;;;;21.10;84.80;;;;;;5008093;28;19963;-91
2023/09/12 09:56:16;;;;;;;;;;;21.00;84.70;;;;;;4997199;28;20389;-90
2023/09/12 09:58:52;;;;;;;;;;;21.20;83.70;;;;;;5001657;28;19909;-90
2023/09/12 10:01:19;;;;;;;;;;;21.10;84.50;;;;;;5010524;28;20275;-90
2023/09/12 10:03:49;;;;;;;;;;;21.20;85.90;;;;;;5022200;28;19909;-91
2023/09/12 10:06:18;;;;;;;;;;;21.40;84.60;;;;;;5004268;28;19913;-90
2023/09/12 10:08:45;;;;;;;;;;;21.50;83.50;;;;;;5019734;28;19920;-91
2023/09/12 10:11:12;;;;;;;;;;;21.80;82.50;;;;;;5021680;28;20377;-90
2023/09/12 10:13:37;;;;;;;;;;;21.80;82.60;;;;;;5025570;28;19956;-91
2023/09/12 10:16:04;;;;;;;;;;;22.00;82.30;;;;;;5004477;28;19917;-91
2023/09/12 10:18:33;;;;;;;;;;;22.10;80.70;;;;;;5005038;28;19920;-90
2023/09/12 10:21:04;;;;;;;;;;;22.20;82.10;;;;;;5000246;28;20016;-91
2023/09/12 10:23:44;;;;;;;;;;;22.30;81.80;;;;;;4999947;28;19910;-89
2023/09/12 10:26:10;;;;;;;;;;;22.40;78.60;;;;;;5010982;28;19917;-91
2023/09/12 10:28:37;;;;;;;;;;;22.50;78.10;;;;;;4998345;28;19914;-89
2023/09/12 10:31:02;;;;;;;;;;;22.60;77.90;;;;;;5003101;28;19913;-90
2023/09/12 10:33:31;;;;;;;;;;;22.60;79.30;;;;;;5017685;28;19921;-91
2023/09/12 10:35:58;;;;;;;;;;;22.60;77.50;;;;;;5001226;28;19921;-90
2023/09/12 10:38:25;;;;;;;;;;;22.70;78.20;;;;;;5010887;28;19921;-90
2023/09/12 10:40:53;;;;;;;;;;;22.60;77.70;;;;;;5004857;28;19917;-91
2023/09/12 10:43:19;;;;;;;;;;;22.70;77.80;;;;;;4998909;28;20012;-89
2023/09/12 10:45:45;;;;;;;;;;;22.80;77.00;;;;;;5010794;28;19949;-90
2023/09/12 10:48:11;;;;;;;;;;;22.90;76.70;;;;;;5010142;28;19948;-90
2023/09/12 10:50:37;;;;;;;;;;;22.90;74.90;;;;;;5006523;28;19924;-90
2023/09/12 10:53:12;;;;;;;;;;;22.90;76.20;;;;;;5001385;28;19914;-90
2023/09/12 10:55:37;;;;;;;;;;;22.90;78.20;;;;;;5001352;28;19910;-90
2023/09/12 10:58:04;;;;;;;;;;;22.90;75.90;;;;;;5002665;28;19916;-90
2023/09/12 11:00:32;;;;;;;;;;;22.80;77.00;;;;;;5003293;28;20374;-92
2023/09/12 11:02:58;;;;;;;;;;;22.80;77.00;;;;;;5000508;28;20334;-90
2023/09/12 11:05:27;;;;;;;;;;;22.70;78.00;;;;;;5004502;28;19918;-91
2023/09/12 11:07:55;;;;;;;;;;;22.60;76.40;;;;;;4998276;28;19921;-90
2023/09/12 11:10:21;;;;;;;;;;;22.60;78.60;;;;;;4998702;28;19953;-90
2023/09/12 11:12:51;;;;;;;;;;;22.70;79.20;;;;;;4995172;28;19913;-91
2023/09/12 11:15:17;;;;;;;;;;;22.80;78.20;;;;;;5017984;28;20290;-90
2023/09/12 11:17:48;;;;;;;;;;;22.70;77.60;;;;;;5035853;28;20009;-90
2023/09/12 11:20:15;;;;;;;;;;;22.90;77.80;;;;;;5029743;28;20305;-90
2023/09/12 11:22:43;;;;;;;;;;;22.90;76.80;;;;;;5017968;28;19914;-90
2023/09/12 11:25:31;;;;;;;;;;;23.00;75.70;;;;;;4999394;28;20367;-90
2023/09/12 11:27:56;;;;;;;;;;;23.00;77.00;;;;;;4998132;28;19921;-91
2023/09/12 11:30:23;;;;;;;;;;;23.30;74.80;;;;;;4998466;28;19925;-89
2023/09/12 11:32:50;;;;;;;;;;;23.30;74.50;;;;;;4996479;28;19924;-91
2023/09/12 11:35:16;;;;;;;;;;;23.30;73.80;;;;;;4997630;28;19952;-90
2023/09/12 11:37:52;;;;;;;;;;;23.10;74.60;;;;;;4999242;28;19913;-90
2023/09/12 11:40:22;;;;;;;;;;;23.10;75.90;;;;;;5027283;28;20535;-88
2023/09/12 11:42:51;;;;;;;;;;;23.10;75.60;;;;;;5014712;28;19924;-92
2023/09/12 11:45:18;;;;;;;;;;;23.30;72.90;;;;;;5023957;28;20397;-89
2023/09/12 11:47:44;;;;;;;;;;;23.40;72.20;;;;;;5017729;28;19928;-90
2023/09/12 11:50:26;;;;;;;;;;;23.50;72.30;;;;;;5018293;28;19913;-89
2023/09/12 11:53:02;;;;;;;;;;;23.60;71.80;;;;;;5020463;28;19949;-91
2023/09/12 11:55:30;;;;;;;;;;;23.60;72.80;;;;;;5033605;28;19941;-91
2023/09/12 11:57:55;;;;;;;;;;;23.70;71.80;;;;;;5001396;28;20290;-91
2023/09/12 12:00:21;;;;;;;;;;;23.80;72.30;;;;;;5014920;28;19913;-91
2023/09/12 12:02:47;;;;;;;;;;;23.80;72.90;;;;;;4995760;28;19921;-89
2023/09/12 12:05:12;;;;;;;;;;;24.00;72.10;;;;;;5012553;28;20433;-89
2023/09/12 12:07:38;;;;;;;;;;;24.10;71.20;;;;;;4998757;28;19913;-91
2023/09/12 12:10:04;;;;;;;;;;;24.00;71.70;;;;;;4995794;28;19937;-91
2023/09/12 12:12:30;;;;;;;;;;;24.00;70.70;;;;;;4997263;28;19916;-91
2023/09/12 12:14:55;;;;;;;;;;;23.90;71.30;;;;;;4991896;28;19918;-89
2023/09/12 12:17:21;;;;;;;;;;;24.00;71.40;;;;;;5007963;28;19921;-89
2023/09/12 12:19:47;;;;;;;;;;;23.80;72.10;;;;;;4995827;28;19914;-88
2023/09/12 12:22:12;;;;;;;;;;;23.70;73.30;;;;;;4999811;28;20384;-89
2023/09/12 12:24:39;;;;;;;;;;;23.80;72.10;;;;;;4994309;28;20003;-91
2023/09/12 12:27:04;;;;;;;;;;;23.80;73.60;;;;;;4992045;28;21101;-88
2023/09/12 12:29:30;;;;;;;;;;;23.80;72.60;;;;;;4995785;28;20429;-88
2023/09/12 12:32:00;;;;;;;;;;;23.70;72.90;;;;;;5001204;28;19920;-89
2023/09/12 12:34:26;;;;;;;;;;;23.70;74.40;;;;;;4995242;28;19921;-89
2023/09/12 12:36:55;;;;;;;;;;;23.90;74.90;;;;;;5003822;28;20279;-88
2023/09/12 12:39:21;;;;;;;;;;;23.80;72.80;;;;;;5001938;28;19913;-89
2023/09/12 12:41:46;;;;;;;;;;;23.70;73.00;;;;;;5002880;28;19917;-89
2023/09/12 12:44:13;;;;;;;;;;;23.60;73.70;;;;;;4996860;28;20294;-88
2023/09/12 12:46:54;;;;;;;;;;;23.60;73.70;;;;;;4998394;28;19920;-88
2023/09/12 12:49:20;;;;;;;;;;;23.40;74.00;;;;;;5012021;28;20007;-88
2023/09/12 12:51:46;;;;;;;;;;;23.40;73.80;;;;;;5008084;28;19999;-87
2023/09/12 12:54:12;;;;;;;;;;;23.50;74.20;;;;;;5005594;28;19917;-87
2023/09/12 12:56:38;;;;;;;;;;;23.50;74.50;;;;;;5002970;28;19964;-87
2023/09/12 12:59:08;;;;;;;;;;;23.50;75.00;;;;;;4999274;28;19921;-88
2023/09/12 13:01:35;;;;;;;;;;;23.60;73.20;;;;;;4993063;28;20357;-87
2023/09/12 13:04:00;;;;;;;;;;;23.80;72.90;;;;;;5024515;28;19913;-88
2023/09/12 13:06:27;;;;;;;;;;;23.80;73.80;;;;;;5000227;28;20401;-88
2023/09/12 13:08:53;;;;;;;;;;;23.80;73.80;;;;;;5000659;28;19914;-88
2023/09/12 13:11:19;;;;;;;;;;;23.90;73.30;;;;;;4996127;28;19916;-88
2023/09/12 13:13:45;;;;;;;;;;;24.00;72.50;;;;;;5007147;28;19913;-89
2023/09/12 13:16:12;;;;;;;;;;;24.00;73.30;;;;;;4999488;28;20302;-89
2023/09/12 13:18:38;;;;;;;;;;;24.00;73.60;;;;;;5019973;28;19924;-88
2023/09/12 13:21:04;;;;;;;;;;;24.00;73.80;;;;;;5030402;28;20278;-88
2023/09/12 13:23:29;;;;;;;;;;;24.00;73.80;;;;;;5012598;28;19909;-89
2023/09/12 13:25:55;;;;;;;;;;;24.00;73.60;;;;;;5031440;28;20362;-88
2023/09/12 13:28:25;;;;;;;;;;;23.90;73.40;;;;;;5025930;28;19913;-87
2023/09/12 13:30:51;;;;;;;;;;;23.80;74.40;;;;;;5003300;28;19920;-88
2023/09/12 13:33:16;;;;;;;;;;;23.70;74.60;;;;;;4999068;28;19917;-88
2023/09/12 13:35:42;;;;;;;;;;;23.80;74.00;;;;;;5021267;28;20291;-88
2023/09/12 13:38:09;;;;;;;;;;;23.90;73.40;;;;;;5022097;28;19917;-88
2023/09/12 13:40:38;;;;;;;;;;;24.00;72.80;;;;;;5001548;28;19914;-88
2023/09/12 13:43:06;;;;;;;;;;;23.80;73.40;;;;;;5007301;28;20333;-88
2023/09/12 13:45:32;;;;;;;;;;;23.70;74.90;;;;;;4997557;28;19960;-88
2023/09/12 13:47:58;;;;;;;;;;;23.70;74.70;;;;;;5013781;28;19913;-89
2023/09/12 13:50:24;;;;;;;;;;;23.70;74.10;;;;;;5017924;28;19917;-89
2023/09/12 13:52:50;;;;;;;;;;;23.70;73.70;;;;;;5001872;28;20271;-89
2023/09/12 13:55:16;;;;;;;;;;;23.80;73.80;;;;;;5003776;28;19964;-88
2023/09/12 13:57:41;;;;;;;;;;;23.80;73.40;;;;;;4999900;28;19934;-89
2023/09/12 14:00:07;;;;;;;;;;;23.90;73.00;;;;;;5015433;28;19920;-88
2023/09/12 14:02:33;;;;;;;;;;;24.20;72.20;;;;;;5028768;28;19920;-87
2023/09/12 14:04:58;;;;;;;;;;;24.40;72.60;;;;;;5016575;28;19944;-88
2023/09/12 14:07:24;;;;;;;;;;;24.30;72.80;;;;;;5025588;28;19928;-86
2023/09/12 14:09:51;;;;;;;;;;;24.30;72.30;;;;;;5015165;28;19914;-89
2023/09/12 14:12:16;;;;;;;;;;;24.20;71.80;;;;;;5009995;28;19918;-88